sensor_id;sensor_type;location;lat;lon;timestamp;P1;durP1;ratioP1;P2;durP2;ratioP2
11319;SDS011;5715;48.234;14.320;2023-03-14T00:01:31;2.93;;;2.77;;
11319;SDS011;5715;48.234;14.320;2023-03-14T00:04:19;3.07;;;2.77;;
11319;SDS011;5715;48.234;14.320;2023-03-14T00:07:06;4.43;;;3.90;;
11319;SDS011;5715;48.234;14.320;2023-03-14T00:09:56;4.67;;;3.70;;
11319;SDS011;5715;48.234;14.320;2023-03-14T00:12:44;3.93;;;3.57;;
11319;SDS011;5715;48.234;14.320;2023-03-14T00:15:32;14.43;;;3.97;;
11319;SDS011;5715;48.234;14.320;2023-03-14T00:18:23;4.60;;;3.60;;
11319;SDS011;5715;48.234;14.320;2023-03-14T00:21:11;3.70;;;2.97;;
11319;SDS011;5715;48.234;14.320;2023-03-14T00:23:59;5.47;;;3.80;;
11319;SDS011;5715;48.234;14.320;2023-03-14T00:26:47;3.53;;;3.23;;
11319;SDS011;5715;48.234;14.320;2023-03-14T00:29:35;3.70;;;3.33;;
11319;SDS011;5715;48.234;14.320;2023-03-14T00:32:22;3.97;;;3.27;;
11319;SDS011;5715;48.234;14.320;2023-03-14T00:35:10;4.73;;;3.50;;
11319;SDS011;5715;48.234;14.320;2023-03-14T00:37:58;3.73;;;2.83;;
11319;SDS011;5715;48.234;14.320;2023-03-14T00:40:45;3.93;;;3.23;;
11319;SDS011;5715;48.234;14.320;2023-03-14T00:43:32;8.17;;;3.50;;
11319;SDS011;5715;48.234;14.320;2023-03-14T00:46:20;4.10;;;3.27;;
11319;SDS011;5715;48.234;14.320;2023-03-14T00:49:08;9.63;;;4.33;;
11319;SDS011;5715;48.234;14.320;2023-03-14T00:51:56;3.20;;;2.90;;
11319;SDS011;5715;48.234;14.320;2023-03-14T00:54:43;2.80;;;2.60;;
11319;SDS011;5715;48.234;14.320;2023-03-14T00:57:31;3.47;;;3.17;;
11319;SDS011;5715;48.234;14.320;2023-03-14T01:00:20;15.17;;;4.60;;
11319;SDS011;5715;48.234;14.320;2023-03-14T01:03:09;5.27;;;2.70;;
11319;SDS011;5715;48.234;14.320;2023-03-14T01:06:15;3.70;;;3.37;;
11319;SDS011;5715;48.234;14.320;2023-03-14T01:09:09;3.30;;;3.00;;
11319;SDS011;5715;48.234;14.320;2023-03-14T01:11:59;5.40;;;2.80;;
11319;SDS011;5715;48.234;14.320;2023-03-14T01:14:50;5.47;;;2.80;;
11319;SDS011;5715;48.234;14.320;2023-03-14T01:17:38;7.47;;;2.63;;
11319;SDS011;5715;48.234;14.320;2023-03-14T01:20:26;2.73;;;2.53;;
11319;SDS011;5715;48.234;14.320;2023-03-14T01:23:13;3.37;;;2.87;;
11319;SDS011;5715;48.234;14.320;2023-03-14T01:26:01;3.27;;;2.33;;
11319;SDS011;5715;48.234;14.320;2023-03-14T01:28:49;4.33;;;3.20;;
11319;SDS011;5715;48.234;14.320;2023-03-14T01:31:40;4.43;;;3.63;;
11319;SDS011;5715;48.234;14.320;2023-03-14T01:34:27;3.10;;;2.90;;
11319;SDS011;5715;48.234;14.320;2023-03-14T01:37:15;7.83;;;3.60;;
11319;SDS011;5715;48.234;14.320;2023-03-14T01:40:03;4.40;;;3.47;;
11319;SDS011;5715;48.234;14.320;2023-03-14T01:43:05;3.97;;;3.60;;
11319;SDS011;5715;48.234;14.320;2023-03-14T01:49:15;3.40;;;3.10;;
11319;SDS011;5715;48.234;14.320;2023-03-14T01:52:13;6.53;;;3.47;;
11319;SDS011;5715;48.234;14.320;2023-03-14T01:55:21;3.93;;;3.60;;
11319;SDS011;5715;48.234;14.320;2023-03-14T01:58:14;3.43;;;3.23;;
11319;SDS011;5715;48.234;14.320;2023-03-14T02:01:04;5.10;;;4.40;;
11319;SDS011;5715;48.234;14.320;2023-03-14T02:03:56;9.50;;;3.90;;
11319;SDS011;5715;48.234;14.320;2023-03-14T02:06:58;9.53;;;4.17;;
11319;SDS011;5715;48.234;14.320;2023-03-14T02:09:56;5.77;;;3.07;;
11319;SDS011;5715;48.234;14.320;2023-03-14T02:12:47;5.13;;;4.73;;
11319;SDS011;5715;48.234;14.320;2023-03-14T02:15:37;6.93;;;3.93;;
11319;SDS011;5715;48.234;14.320;2023-03-14T02:18:26;2.90;;;2.73;;
11319;SDS011;5715;48.234;14.320;2023-03-14T02:21:23;5.83;;;3.03;;
11319;SDS011;5715;48.234;14.320;2023-03-14T02:24:40;10.23;;;3.27;;
11319;SDS011;5715;48.234;14.320;2023-03-14T02:27:43;4.33;;;3.73;;
11319;SDS011;5715;48.234;14.320;2023-03-14T02:30:34;2.70;;;2.40;;
11319;SDS011;5715;48.234;14.320;2023-03-14T02:33:22;4.03;;;3.63;;
11319;SDS011;5715;48.234;14.320;2023-03-14T02:36:11;3.10;;;2.80;;
11319;SDS011;5715;48.234;14.320;2023-03-14T02:39:07;3.53;;;2.93;;
11319;SDS011;5715;48.234;14.320;2023-03-14T02:42:25;5.00;;;3.17;;
11319;SDS011;5715;48.234;14.320;2023-03-14T02:48:02;3.10;;;2.80;;
11319;SDS011;5715;48.234;14.320;2023-03-14T02:50:58;5.93;;;2.80;;
11319;SDS011;5715;48.234;14.320;2023-03-14T02:53:47;2.63;;;2.43;;
11319;SDS011;5715;48.234;14.320;2023-03-14T02:56:35;3.33;;;2.60;;
11319;SDS011;5715;48.234;14.320;2023-03-14T02:59:24;3.17;;;2.93;;
11319;SDS011;5715;48.234;14.320;2023-03-14T03:02:11;3.60;;;2.57;;
11319;SDS011;5715;48.234;14.320;2023-03-14T03:04:58;4.43;;;2.93;;
11319;SDS011;5715;48.234;14.320;2023-03-14T03:07:46;2.97;;;2.73;;
11319;SDS011;5715;48.234;14.320;2023-03-14T03:10:34;2.03;;;1.90;;
11319;SDS011;5715;48.234;14.320;2023-03-14T03:13:21;4.17;;;3.33;;
11319;SDS011;5715;48.234;14.320;2023-03-14T03:16:09;3.87;;;2.90;;
11319;SDS011;5715;48.234;14.320;2023-03-14T03:18:56;2.83;;;2.63;;
11319;SDS011;5715;48.234;14.320;2023-03-14T03:21:44;2.87;;;2.67;;
11319;SDS011;5715;48.234;14.320;2023-03-14T03:24:31;5.03;;;3.07;;
11319;SDS011;5715;48.234;14.320;2023-03-14T03:27:19;3.73;;;2.77;;
11319;SDS011;5715;48.234;14.320;2023-03-14T03:30:06;3.93;;;3.63;;
11319;SDS011;5715;48.234;14.320;2023-03-14T03:32:55;3.60;;;2.70;;
11319;SDS011;5715;48.234;14.320;2023-03-14T03:35:44;3.13;;;2.93;;
11319;SDS011;5715;48.234;14.320;2023-03-14T03:38:34;2.93;;;2.73;;
11319;SDS011;5715;48.234;14.320;2023-03-14T03:41:22;3.10;;;2.80;;
11319;SDS011;5715;48.234;14.320;2023-03-14T03:44:09;3.63;;;3.27;;
11319;SDS011;5715;48.234;14.320;2023-03-14T03:46:57;8.47;;;3.23;;
11319;SDS011;5715;48.234;14.320;2023-03-14T03:49:45;2.90;;;2.70;;
11319;SDS011;5715;48.234;14.320;2023-03-14T03:52:32;3.80;;;3.00;;
11319;SDS011;5715;48.234;14.320;2023-03-14T03:55:20;6.10;;;3.70;;
11319;SDS011;5715;48.234;14.320;2023-03-14T03:58:07;2.30;;;2.20;;
11319;SDS011;5715;48.234;14.320;2023-03-14T04:00:55;3.63;;;2.87;;
11319;SDS011;5715;48.234;14.320;2023-03-14T04:03:42;2.60;;;2.40;;
11319;SDS011;5715;48.234;14.320;2023-03-14T04:06:30;6.63;;;3.70;;
11319;SDS011;5715;48.234;14.320;2023-03-14T04:09:18;3.47;;;3.27;;
11319;SDS011;5715;48.234;14.320;2023-03-14T04:12:06;12.20;;;4.00;;
11319;SDS011;5715;48.234;14.320;2023-03-14T04:14:53;6.80;;;6.37;;
11319;SDS011;5715;48.234;14.320;2023-03-14T04:17:40;6.57;;;2.87;;
11319;SDS011;5715;48.234;14.320;2023-03-14T04:20:28;3.30;;;2.67;;
11319;SDS011;5715;48.234;14.320;2023-03-14T04:23:15;2.97;;;2.77;;
11319;SDS011;5715;48.234;14.320;2023-03-14T04:26:03;3.07;;;2.77;;
11319;SDS011;5715;48.234;14.320;2023-03-14T04:28:51;2.57;;;2.37;;
11319;SDS011;5715;48.234;14.320;2023-03-14T04:31:38;3.23;;;3.03;;
11319;SDS011;5715;48.234;14.320;2023-03-14T04:34:26;2.67;;;2.47;;
11319;SDS011;5715;48.234;14.320;2023-03-14T04:37:13;6.13;;;3.50;;
11319;SDS011;5715;48.234;14.320;2023-03-14T04:40:01;3.47;;;3.17;;
11319;SDS011;5715;48.234;14.320;2023-03-14T04:42:52;3.23;;;2.93;;
11319;SDS011;5715;48.234;14.320;2023-03-14T04:45:43;3.13;;;2.83;;
11319;SDS011;5715;48.234;14.320;2023-03-14T04:48:31;3.17;;;2.70;;
11319;SDS011;5715;48.234;14.320;2023-03-14T04:51:18;3.67;;;3.10;;
11319;SDS011;5715;48.234;14.320;2023-03-14T04:54:05;3.93;;;3.37;;
11319;SDS011;5715;48.234;14.320;2023-03-14T04:56:54;4.93;;;3.20;;
11319;SDS011;5715;48.234;14.320;2023-03-14T04:59:42;3.30;;;3.00;;
11319;SDS011;5715;48.234;14.320;2023-03-14T05:02:29;3.23;;;2.90;;
11319;SDS011;5715;48.234;14.320;2023-03-14T05:05:17;2.67;;;2.17;;
11319;SDS011;5715;48.234;14.320;2023-03-14T05:08:04;2.63;;;2.43;;
11319;SDS011;5715;48.234;14.320;2023-03-14T05:10:53;10.67;;;3.00;;
11319;SDS011;5715;48.234;14.320;2023-03-14T05:13:45;2.13;;;2.03;;
11319;SDS011;5715;48.234;14.320;2023-03-14T05:16:32;5.43;;;2.77;;
11319;SDS011;5715;48.234;14.320;2023-03-14T05:19:20;10.00;;;3.03;;
11319;SDS011;5715;48.234;14.320;2023-03-14T05:22:07;5.60;;;3.07;;
11319;SDS011;5715;48.234;14.320;2023-03-14T05:24:55;9.63;;;3.60;;
11319;SDS011;5715;48.234;14.320;2023-03-14T05:27:45;3.93;;;3.27;;
11319;SDS011;5715;48.234;14.320;2023-03-14T05:30:32;3.67;;;3.37;;
11319;SDS011;5715;48.234;14.320;2023-03-14T05:33:20;3.40;;;2.40;;
11319;SDS011;5715;48.234;14.320;2023-03-14T05:36:08;4.63;;;3.13;;
11319;SDS011;5715;48.234;14.320;2023-03-14T05:38:55;4.57;;;3.20;;
11319;SDS011;5715;48.234;14.320;2023-03-14T05:41:43;7.60;;;3.27;;
11319;SDS011;5715;48.234;14.320;2023-03-14T05:44:30;15.77;;;3.67;;
11319;SDS011;5715;48.234;14.320;2023-03-14T05:47:18;2.33;;;2.20;;
11319;SDS011;5715;48.234;14.320;2023-03-14T05:50:05;8.90;;;2.53;;
11319;SDS011;5715;48.234;14.320;2023-03-14T05:52:54;3.30;;;2.20;;
11319;SDS011;5715;48.234;14.320;2023-03-14T05:55:41;2.00;;;1.83;;
11319;SDS011;5715;48.234;14.320;2023-03-14T05:58:29;3.37;;;2.00;;
11319;SDS011;5715;48.234;14.320;2023-03-14T06:01:16;2.50;;;1.90;;
11319;SDS011;5715;48.234;14.320;2023-03-14T06:04:04;1.43;;;1.33;;
11319;SDS011;5715;48.234;14.320;2023-03-14T06:06:51;1.37;;;1.27;;
11319;SDS011;5715;48.234;14.320;2023-03-14T06:09:39;1.20;;;1.20;;
11319;SDS011;5715;48.234;14.320;2023-03-14T06:12:26;2.70;;;1.70;;
11319;SDS011;5715;48.234;14.320;2023-03-14T06:15:14;5.83;;;2.73;;
11319;SDS011;5715;48.234;14.320;2023-03-14T06:18:02;1.67;;;1.40;;
11319;SDS011;5715;48.234;14.320;2023-03-14T06:20:52;3.13;;;2.53;;
11319;SDS011;5715;48.234;14.320;2023-03-14T06:23:42;4.23;;;2.17;;
11319;SDS011;5715;48.234;14.320;2023-03-14T06:26:29;2.03;;;1.93;;
11319;SDS011;5715;48.234;14.320;2023-03-14T06:29:17;5.73;;;2.07;;
11319;SDS011;5715;48.234;14.320;2023-03-14T06:32:04;1.70;;;1.60;;
11319;SDS011;5715;48.234;14.320;2023-03-14T06:34:52;2.30;;;2.10;;
11319;SDS011;5715;48.234;14.320;2023-03-14T06:37:39;2.47;;;2.27;;
11319;SDS011;5715;48.234;14.320;2023-03-14T06:40:28;3.23;;;1.93;;
11319;SDS011;5715;48.234;14.320;2023-03-14T06:43:16;7.30;;;2.50;;
11319;SDS011;5715;48.234;14.320;2023-03-14T06:46:04;3.10;;;2.27;;
11319;SDS011;5715;48.234;14.320;2023-03-14T06:48:52;4.03;;;3.50;;
11319;SDS011;5715;48.234;14.320;2023-03-14T06:51:40;17.07;;;2.90;;
11319;SDS011;5715;48.234;14.320;2023-03-14T06:54:27;2.63;;;2.43;;
11319;SDS011;5715;48.234;14.320;2023-03-14T06:57:15;8.97;;;2.13;;
11319;SDS011;5715;48.234;14.320;2023-03-14T07:00:03;3.10;;;2.37;;
11319;SDS011;5715;48.234;14.320;2023-03-14T07:02:52;8.13;;;3.17;;
11319;SDS011;5715;48.234;14.320;2023-03-14T07:05:39;3.43;;;2.70;;
11319;SDS011;5715;48.234;14.320;2023-03-14T07:08:27;2.40;;;2.20;;
11319;SDS011;5715;48.234;14.320;2023-03-14T07:11:15;2.63;;;2.13;;
11319;SDS011;5715;48.234;14.320;2023-03-14T07:14:02;2.03;;;1.93;;
11319;SDS011;5715;48.234;14.320;2023-03-14T07:16:50;2.87;;;2.67;;
11319;SDS011;5715;48.234;14.320;2023-03-14T07:19:38;2.80;;;2.50;;
11319;SDS011;5715;48.234;14.320;2023-03-14T07:22:26;4.10;;;2.43;;
11319;SDS011;5715;48.234;14.320;2023-03-14T07:25:13;3.23;;;2.23;;
11319;SDS011;5715;48.234;14.320;2023-03-14T07:28:01;2.93;;;1.90;;
11319;SDS011;5715;48.234;14.320;2023-03-14T07:30:48;2.53;;;2.27;;
11319;SDS011;5715;48.234;14.320;2023-03-14T07:33:36;3.97;;;2.67;;
11319;SDS011;5715;48.234;14.320;2023-03-14T07:36:23;3.33;;;2.03;;
11319;SDS011;5715;48.234;14.320;2023-03-14T07:39:11;3.60;;;2.87;;
11319;SDS011;5715;48.234;14.320;2023-03-14T07:41:58;2.50;;;2.27;;
11319;SDS011;5715;48.234;14.320;2023-03-14T07:44:46;3.67;;;3.00;;
11319;SDS011;5715;48.234;14.320;2023-03-14T07:47:34;3.80;;;2.23;;
11319;SDS011;5715;48.234;14.320;2023-03-14T07:50:22;6.33;;;2.43;;
11319;SDS011;5715;48.234;14.320;2023-03-14T07:53:11;3.37;;;2.37;;
11319;SDS011;5715;48.234;14.320;2023-03-14T07:55:59;3.33;;;2.43;;
11319;SDS011;5715;48.234;14.320;2023-03-14T07:58:46;10.13;;;3.53;;
11319;SDS011;5715;48.234;14.320;2023-03-14T08:01:34;4.80;;;2.73;;
11319;SDS011;5715;48.234;14.320;2023-03-14T08:04:21;6.20;;;3.30;;
11319;SDS011;5715;48.234;14.320;2023-03-14T08:07:09;1.73;;;1.63;;
11319;SDS011;5715;48.234;14.320;2023-03-14T08:09:56;2.07;;;1.87;;
11319;SDS011;5715;48.234;14.320;2023-03-14T08:12:44;1.97;;;1.40;;
11319;SDS011;5715;48.234;14.320;2023-03-14T08:15:31;0.90;;;0.90;;
11319;SDS011;5715;48.234;14.320;2023-03-14T08:18:19;1.03;;;1.03;;
11319;SDS011;5715;48.234;14.320;2023-03-14T08:21:06;1.53;;;1.43;;
11319;SDS011;5715;48.234;14.320;2023-03-14T08:23:54;0.90;;;0.90;;
11319;SDS011;5715;48.234;14.320;2023-03-14T08:26:41;2.80;;;1.23;;
11319;SDS011;5715;48.234;14.320;2023-03-14T08:29:29;1.23;;;1.23;;
11319;SDS011;5715;48.234;14.320;2023-03-14T08:32:17;2.73;;;1.67;;
11319;SDS011;5715;48.234;14.320;2023-03-14T08:35:07;0.73;;;0.73;;
11319;SDS011;5715;48.234;14.320;2023-03-14T08:37:56;0.70;;;0.70;;
11319;SDS011;5715;48.234;14.320;2023-03-14T08:40:43;1.43;;;1.40;;
11319;SDS011;5715;48.234;14.320;2023-03-14T08:43:32;2.77;;;1.20;;
11319;SDS011;5715;48.234;14.320;2023-03-14T08:46:20;2.00;;;1.43;;
11319;SDS011;5715;48.234;14.320;2023-03-14T08:49:07;1.47;;;1.37;;
11319;SDS011;5715;48.234;14.320;2023-03-14T08:51:55;0.90;;;0.90;;
11319;SDS011;5715;48.234;14.320;2023-03-14T08:54:45;1.17;;;1.07;;
11319;SDS011;5715;48.234;14.320;2023-03-14T08:57:33;7.07;;;1.30;;
11319;SDS011;5715;48.234;14.320;2023-03-14T09:00:21;5.60;;;1.43;;
11319;SDS011;5715;48.234;14.320;2023-03-14T09:03:09;5.93;;;1.10;;
11319;SDS011;5715;48.234;14.320;2023-03-14T09:06:00;0.90;;;0.90;;
11319;SDS011;5715;48.234;14.320;2023-03-14T09:08:53;2.30;;;1.10;;
11319;SDS011;5715;48.234;14.320;2023-03-14T09:11:40;1.70;;;1.30;;
11319;SDS011;5715;48.234;14.320;2023-03-14T09:14:28;1.43;;;1.33;;
11319;SDS011;5715;48.234;14.320;2023-03-14T09:17:16;0.83;;;0.83;;
11319;SDS011;5715;48.234;14.320;2023-03-14T09:20:04;1.90;;;1.17;;
11319;SDS011;5715;48.234;14.320;2023-03-14T09:22:53;0.97;;;0.87;;
11319;SDS011;5715;48.234;14.320;2023-03-14T09:25:41;0.70;;;0.70;;
11319;SDS011;5715;48.234;14.320;2023-03-14T09:28:29;1.93;;;1.40;;
11319;SDS011;5715;48.234;14.320;2023-03-14T09:31:17;0.53;;;0.53;;
11319;SDS011;5715;48.234;14.320;2023-03-14T09:34:04;0.80;;;0.80;;
11319;SDS011;5715;48.234;14.320;2023-03-14T09:36:52;0.90;;;0.90;;
11319;SDS011;5715;48.234;14.320;2023-03-14T09:39:40;0.80;;;0.80;;
11319;SDS011;5715;48.234;14.320;2023-03-14T09:42:27;9.67;;;1.20;;
11319;SDS011;5715;48.234;14.320;2023-03-14T09:45:17;2.20;;;1.10;;
11319;SDS011;5715;48.234;14.320;2023-03-14T09:48:34;2.20;;;0.93;;
11319;SDS011;5715;48.234;14.320;2023-03-14T09:51:22;0.80;;;0.80;;
11319;SDS011;5715;48.234;14.320;2023-03-14T09:54:16;0.70;;;0.70;;
11319;SDS011;5715;48.234;14.320;2023-03-14T09:57:41;2.30;;;1.37;;
11319;SDS011;5715;48.234;14.320;2023-03-14T10:00:32;1.73;;;1.10;;
11319;SDS011;5715;48.234;14.320;2023-03-14T10:03:25;0.70;;;0.70;;
11319;SDS011;5715;48.234;14.320;2023-03-14T10:06:27;7.03;;;1.20;;
11319;SDS011;5715;48.234;14.320;2023-03-14T10:09:20;2.30;;;1.30;;
11319;SDS011;5715;48.234;14.320;2023-03-14T10:12:13;0.70;;;0.70;;
11319;SDS011;5715;48.234;14.320;2023-03-14T10:15:08;3.37;;;1.23;;
11319;SDS011;5715;48.234;14.320;2023-03-14T10:18:09;3.53;;;1.67;;
11319;SDS011;5715;48.234;14.320;2023-03-14T10:24:21;6.57;;;1.37;;
11319;SDS011;5715;48.234;14.320;2023-03-14T10:27:20;0.90;;;0.90;;
11319;SDS011;5715;48.234;14.320;2023-03-14T10:33:35;0.90;;;0.90;;
11319;SDS011;5715;48.234;14.320;2023-03-14T10:36:26;0.80;;;0.80;;
11319;SDS011;5715;48.234;14.320;2023-03-14T10:42:09;1.23;;;1.00;;
11319;SDS011;5715;48.234;14.320;2023-03-14T10:45:44;11.10;;;1.47;;
11319;SDS011;5715;48.234;14.320;2023-03-14T10:48:34;1.27;;;1.27;;
11319;SDS011;5715;48.234;14.320;2023-03-14T10:51:29;1.93;;;1.47;;
11319;SDS011;5715;48.234;14.320;2023-03-14T10:54:20;1.20;;;1.20;;
11319;SDS011;5715;48.234;14.320;2023-03-14T10:57:12;2.57;;;1.67;;
11319;SDS011;5715;48.234;14.320;2023-03-14T11:00:00;1.47;;;1.30;;
11319;SDS011;5715;48.234;14.320;2023-03-14T11:09:11;1.47;;;1.37;;
11319;SDS011;5715;48.234;14.320;2023-03-14T11:15:57;6.07;;;0.93;;
11319;SDS011;5715;48.234;14.320;2023-03-14T11:19:14;0.80;;;0.80;;
11319;SDS011;5715;48.234;14.320;2023-03-14T11:25:41;5.57;;;1.53;;
11319;SDS011;5715;48.234;14.320;2023-03-14T11:28:49;1.53;;;1.00;;
11319;SDS011;5715;48.234;14.320;2023-03-14T11:31:44;1.10;;;1.00;;
11319;SDS011;5715;48.234;14.320;2023-03-14T11:34:36;1.40;;;1.30;;
11319;SDS011;5715;48.234;14.320;2023-03-14T11:37:39;4.90;;;1.73;;
11319;SDS011;5715;48.234;14.320;2023-03-14T11:40:53;0.77;;;0.77;;
11319;SDS011;5715;48.234;14.320;2023-03-14T11:43:49;0.80;;;0.80;;
11319;SDS011;5715;48.234;14.320;2023-03-14T11:46:44;3.87;;;1.37;;
11319;SDS011;5715;48.234;14.320;2023-03-14T11:50:15;1.00;;;0.97;;
11319;SDS011;5715;48.234;14.320;2023-03-14T11:56:50;1.30;;;0.80;;
11319;SDS011;5715;48.234;14.320;2023-03-14T12:09:20;0.70;;;0.67;;
11319;SDS011;5715;48.234;14.320;2023-03-14T12:12:10;0.63;;;0.63;;
11319;SDS011;5715;48.234;14.320;2023-03-14T12:15:03;0.70;;;0.70;;
11319;SDS011;5715;48.234;14.320;2023-03-14T12:17:53;1.30;;;1.30;;
11319;SDS011;5715;48.234;14.320;2023-03-14T12:20:42;1.60;;;1.50;;
11319;SDS011;5715;48.234;14.320;2023-03-14T12:23:45;3.20;;;3.00;;
11319;SDS011;5715;48.234;14.320;2023-03-14T12:26:48;0.80;;;0.80;;
11319;SDS011;5715;48.234;14.320;2023-03-14T12:29:57;0.70;;;0.70;;
11319;SDS011;5715;48.234;14.320;2023-03-14T12:36:00;0.90;;;0.90;;
11319;SDS011;5715;48.234;14.320;2023-03-14T12:39:01;0.90;;;0.90;;
11319;SDS011;5715;48.234;14.320;2023-03-14T12:45:34;2.30;;;1.37;;
11319;SDS011;5715;48.234;14.320;2023-03-14T12:48:23;1.50;;;1.40;;
11319;SDS011;5715;48.234;14.320;2023-03-14T12:51:14;0.70;;;0.70;;
11319;SDS011;5715;48.234;14.320;2023-03-14T13:00:17;1.30;;;1.20;;
11319;SDS011;5715;48.234;14.320;2023-03-14T13:03:18;0.70;;;0.70;;
11319;SDS011;5715;48.234;14.320;2023-03-14T13:06:11;0.80;;;0.80;;
11319;SDS011;5715;48.234;14.320;2023-03-14T13:09:01;0.73;;;0.73;;
11319;SDS011;5715;48.234;14.320;2023-03-14T13:12:16;0.50;;;0.50;;
11319;SDS011;5715;48.234;14.320;2023-03-14T13:15:14;0.87;;;0.80;;
11319;SDS011;5715;48.234;14.320;2023-03-14T13:21:22;0.63;;;0.50;;
11319;SDS011;5715;48.234;14.320;2023-03-14T13:24:23;0.80;;;0.80;;
11319;SDS011;5715;48.234;14.320;2023-03-14T13:27:16;0.80;;;0.80;;
11319;SDS011;5715;48.234;14.320;2023-03-14T13:33:18;0.70;;;0.70;;
11319;SDS011;5715;48.234;14.320;2023-03-14T13:36:09;0.67;;;0.67;;
11319;SDS011;5715;48.234;14.320;2023-03-14T13:39:01;0.60;;;0.60;;
11319;SDS011;5715;48.234;14.320;2023-03-14T13:41:55;0.80;;;0.80;;
11319;SDS011;5715;48.234;14.320;2023-03-14T13:44:47;0.83;;;0.83;;
11319;SDS011;5715;48.234;14.320;2023-03-14T13:47:35;1.20;;;1.10;;
11319;SDS011;5715;48.234;14.320;2023-03-14T13:50:26;1.00;;;0.93;;
11319;SDS011;5715;48.234;14.320;2023-03-14T13:53:14;1.00;;;1.00;;
11319;SDS011;5715;48.234;14.320;2023-03-14T13:56:02;0.73;;;0.73;;
11319;SDS011;5715;48.234;14.320;2023-03-14T13:58:51;0.87;;;0.83;;
11319;SDS011;5715;48.234;14.320;2023-03-14T14:01:39;1.07;;;0.93;;
11319;SDS011;5715;48.234;14.320;2023-03-14T14:04:26;1.40;;;0.77;;
11319;SDS011;5715;48.234;14.320;2023-03-14T14:07:16;1.47;;;0.97;;
11319;SDS011;5715;48.234;14.320;2023-03-14T14:10:05;0.97;;;0.93;;
11319;SDS011;5715;48.234;14.320;2023-03-14T14:12:58;0.70;;;0.70;;
11319;SDS011;5715;48.234;14.320;2023-03-14T14:15:51;1.03;;;1.00;;
11319;SDS011;5715;48.234;14.320;2023-03-14T14:18:41;0.70;;;0.70;;
11319;SDS011;5715;48.234;14.320;2023-03-14T14:21:29;0.70;;;0.70;;
11319;SDS011;5715;48.234;14.320;2023-03-14T14:24:18;0.70;;;0.70;;
11319;SDS011;5715;48.234;14.320;2023-03-14T14:27:27;0.80;;;0.80;;
11319;SDS011;5715;48.234;14.320;2023-03-14T14:33:19;0.70;;;0.70;;
11319;SDS011;5715;48.234;14.320;2023-03-14T14:36:19;0.70;;;0.70;;
11319;SDS011;5715;48.234;14.320;2023-03-14T14:39:30;0.70;;;0.70;;
11319;SDS011;5715;48.234;14.320;2023-03-14T14:42:19;0.80;;;0.80;;
11319;SDS011;5715;48.234;14.320;2023-03-14T14:45:16;0.70;;;0.70;;
11319;SDS011;5715;48.234;14.320;2023-03-14T14:48:11;0.30;;;0.30;;
11319;SDS011;5715;48.234;14.320;2023-03-14T14:51:01;0.60;;;0.60;;
11319;SDS011;5715;48.234;14.320;2023-03-14T14:54:02;0.40;;;0.40;;
11319;SDS011;5715;48.234;14.320;2023-03-14T14:57:19;0.43;;;0.43;;
11319;SDS011;5715;48.234;14.320;2023-03-14T15:00:17;3.30;;;0.80;;
11319;SDS011;5715;48.234;14.320;2023-03-14T15:03:10;0.70;;;0.70;;
11319;SDS011;5715;48.234;14.320;2023-03-14T15:06:02;0.73;;;0.73;;
11319;SDS011;5715;48.234;14.320;2023-03-14T15:08:52;0.80;;;0.80;;
11319;SDS011;5715;48.234;14.320;2023-03-14T15:11:40;1.33;;;0.70;;
11319;SDS011;5715;48.234;14.320;2023-03-14T15:14:27;0.60;;;0.60;;
11319;SDS011;5715;48.234;14.320;2023-03-14T15:17:14;1.30;;;1.30;;
11319;SDS011;5715;48.234;14.320;2023-03-14T15:20:03;0.80;;;0.80;;
11319;SDS011;5715;48.234;14.320;2023-03-14T15:22:59;1.60;;;1.23;;
11319;SDS011;5715;48.234;14.320;2023-03-14T15:25:47;1.70;;;1.10;;
11319;SDS011;5715;48.234;14.320;2023-03-14T15:28:43;1.10;;;0.90;;
11319;SDS011;5715;48.234;14.320;2023-03-14T15:31:30;0.87;;;0.87;;
11319;SDS011;5715;48.234;14.320;2023-03-14T15:34:18;0.90;;;0.90;;
11319;SDS011;5715;48.234;14.320;2023-03-14T15:37:10;1.03;;;1.00;;
11319;SDS011;5715;48.234;14.320;2023-03-14T15:40:03;0.87;;;0.87;;
11319;SDS011;5715;48.234;14.320;2023-03-14T15:43:00;2.67;;;0.97;;
11319;SDS011;5715;48.234;14.320;2023-03-14T15:45:47;0.70;;;0.70;;
11319;SDS011;5715;48.234;14.320;2023-03-14T15:48:36;1.33;;;1.23;;
11319;SDS011;5715;48.234;14.320;2023-03-14T15:51:24;2.40;;;1.37;;
11319;SDS011;5715;48.234;14.320;2023-03-14T15:54:12;0.87;;;0.87;;
11319;SDS011;5715;48.234;14.320;2023-03-14T15:56:59;1.17;;;1.13;;
11319;SDS011;5715;48.234;14.320;2023-03-14T15:59:47;10.33;;;1.40;;
11319;SDS011;5715;48.234;14.320;2023-03-14T16:02:35;1.43;;;1.33;;
11319;SDS011;5715;48.234;14.320;2023-03-14T16:05:26;0.90;;;0.90;;
11319;SDS011;5715;48.234;14.320;2023-03-14T16:08:14;1.23;;;1.13;;
11319;SDS011;5715;48.234;14.320;2023-03-14T16:11:03;7.47;;;0.90;;
11319;SDS011;5715;48.234;14.320;2023-03-14T16:13:51;1.20;;;1.10;;
11319;SDS011;5715;48.234;14.320;2023-03-14T16:16:39;1.00;;;1.00;;
11319;SDS011;5715;48.234;14.320;2023-03-14T16:19:26;3.03;;;1.57;;
11319;SDS011;5715;48.234;14.320;2023-03-14T16:22:14;1.27;;;1.10;;
11319;SDS011;5715;48.234;14.320;2023-03-14T16:25:05;1.00;;;1.00;;
11319;SDS011;5715;48.234;14.320;2023-03-14T16:27:54;1.40;;;1.30;;
11319;SDS011;5715;48.234;14.320;2023-03-14T16:30:59;1.33;;;0.97;;
11319;SDS011;5715;48.234;14.320;2023-03-14T16:33:53;0.80;;;0.80;;
11319;SDS011;5715;48.234;14.320;2023-03-14T16:36:40;1.00;;;0.90;;
11319;SDS011;5715;48.234;14.320;2023-03-14T16:39:28;0.60;;;0.60;;
11319;SDS011;5715;48.234;14.320;2023-03-14T16:42:17;3.30;;;1.70;;
11319;SDS011;5715;48.234;14.320;2023-03-14T16:45:07;1.83;;;1.03;;
11319;SDS011;5715;48.234;14.320;2023-03-14T16:47:55;1.30;;;1.20;;
11319;SDS011;5715;48.234;14.320;2023-03-14T16:50:43;0.80;;;0.80;;
11319;SDS011;5715;48.234;14.320;2023-03-14T16:53:30;0.60;;;0.60;;
11319;SDS011;5715;48.234;14.320;2023-03-14T16:56:18;1.70;;;1.60;;
11319;SDS011;5715;48.234;14.320;2023-03-14T16:59:05;0.80;;;0.80;;
11319;SDS011;5715;48.234;14.320;2023-03-14T17:01:53;0.70;;;0.70;;
11319;SDS011;5715;48.234;14.320;2023-03-14T17:04:42;1.77;;;1.70;;
11319;SDS011;5715;48.234;14.320;2023-03-14T17:07:29;0.97;;;0.97;;
11319;SDS011;5715;48.234;14.320;2023-03-14T17:10:17;1.10;;;1.10;;
11319;SDS011;5715;48.234;14.320;2023-03-14T17:13:05;2.33;;;2.23;;
11319;SDS011;5715;48.234;14.320;2023-03-14T17:15:53;1.10;;;1.10;;
11319;SDS011;5715;48.234;14.320;2023-03-14T17:18:43;0.80;;;0.80;;
11319;SDS011;5715;48.234;14.320;2023-03-14T17:21:30;1.07;;;1.07;;
11319;SDS011;5715;48.234;14.320;2023-03-14T17:24:18;0.90;;;0.90;;
11319;SDS011;5715;48.234;14.320;2023-03-14T17:27:05;0.90;;;0.90;;
11319;SDS011;5715;48.234;14.320;2023-03-14T17:29:53;1.10;;;1.03;;
11319;SDS011;5715;48.234;14.320;2023-03-14T17:32:41;1.03;;;1.00;;
11319;SDS011;5715;48.234;14.320;2023-03-14T17:35:28;1.60;;;1.50;;
11319;SDS011;5715;48.234;14.320;2023-03-14T17:38:16;1.13;;;1.13;;
11319;SDS011;5715;48.234;14.320;2023-03-14T17:41:11;0.97;;;0.90;;
11319;SDS011;5715;48.234;14.320;2023-03-14T17:44:01;0.80;;;0.80;;
11319;SDS011;5715;48.234;14.320;2023-03-14T17:46:49;0.77;;;0.77;;
11319;SDS011;5715;48.234;14.320;2023-03-14T17:49:36;0.87;;;0.87;;
11319;SDS011;5715;48.234;14.320;2023-03-14T17:52:24;2.80;;;2.70;;
11319;SDS011;5715;48.234;14.320;2023-03-14T17:55:12;1.70;;;1.43;;
11319;SDS011;5715;48.234;14.320;2023-03-14T17:58:00;1.10;;;1.03;;
11319;SDS011;5715;48.234;14.320;2023-03-14T18:00:48;0.80;;;0.80;;
11319;SDS011;5715;48.234;14.320;2023-03-14T18:03:37;0.90;;;0.90;;
11319;SDS011;5715;48.234;14.320;2023-03-14T18:06:25;0.80;;;0.80;;
11319;SDS011;5715;48.234;14.320;2023-03-14T18:09:15;0.80;;;0.80;;
11319;SDS011;5715;48.234;14.320;2023-03-14T18:12:03;0.83;;;0.83;;
11319;SDS011;5715;48.234;14.320;2023-03-14T18:14:54;1.13;;;0.80;;